createdAt,value
2022-11-13T00:02:05.958Z,8.70
2022-11-13T00:04:32.669Z,8.57
2022-11-13T00:07:00.733Z,9.32
2022-11-13T00:09:27.539Z,9.40
2022-11-13T00:11:54.221Z,8.48
2022-11-13T00:14:21.133Z,8.70
2022-11-13T00:16:47.839Z,8.67
2022-11-13T00:19:14.612Z,9.02
2022-11-13T00:21:41.275Z,9.35
2022-11-13T00:24:09.611Z,8.27
2022-11-13T00:26:36.491Z,8.77
2022-11-13T00:29:03.579Z,8.73
2022-11-13T00:31:30.507Z,9.25
2022-11-13T00:36:44.913Z,8.73
2022-11-13T00:39:13.022Z,9.35
2022-11-13T00:41:39.668Z,9.20
2022-11-13T00:44:06.612Z,9.27
2022-11-13T00:46:33.362Z,9.07
2022-11-13T00:48:59.999Z,8.88
2022-11-13T00:51:26.722Z,8.68
2022-11-13T00:53:53.373Z,8.20
2022-11-13T00:56:21.438Z,9.00
2022-11-13T00:58:48.213Z,8.68
2022-11-13T01:01:17.388Z,8.90
2022-11-13T01:03:44.648Z,9.00
2022-11-13T01:06:13.644Z,8.97
2022-11-13T01:08:40.561Z,8.35
2022-11-13T01:11:11.892Z,8.70
2022-11-13T01:13:40.847Z,8.88
2022-11-13T01:16:09.644Z,8.77
2022-11-13T01:18:36.839Z,9.20
2022-11-13T01:21:06.298Z,9.40
2022-11-13T01:23:33.260Z,9.18
2022-11-13T01:26:09.208Z,8.68
2022-11-13T01:28:36.504Z,8.82
2022-11-13T01:31:06.983Z,8.40
2022-11-13T01:33:33.830Z,8.40
2022-11-13T01:36:01.390Z,8.63
2022-11-13T01:38:28.775Z,8.32
2022-11-13T01:40:56.892Z,9.07
2022-11-13T01:43:26.552Z,8.80
2022-11-13T01:46:13.229Z,8.77
2022-11-13T01:48:43.892Z,7.55
2022-11-13T01:51:13.769Z,9.50
2022-11-13T01:53:43.995Z,9.50
2022-11-13T01:56:11.441Z,8.47
2022-11-13T01:58:39.446Z,7.93
2022-11-13T02:01:07.531Z,8.20
2022-11-13T02:03:34.363Z,9.27
2022-11-13T02:06:01.575Z,8.52
2022-11-13T02:08:28.938Z,9.17
2022-11-13T02:10:56.514Z,8.50
2022-11-13T02:13:23.426Z,8.75
2022-11-13T02:15:51.023Z,8.43
2022-11-13T02:18:22.421Z,9.55
2022-11-13T02:20:57.774Z,8.50
2022-11-13T02:23:34.451Z,9.40
2022-11-13T02:26:03.312Z,9.40
2022-11-13T02:28:30.555Z,8.80
2022-11-13T02:30:57.505Z,9.38
2022-11-13T02:33:27.087Z,9.13
2022-11-13T02:35:53.870Z,8.07
2022-11-13T02:38:20.777Z,8.23
2022-11-13T02:40:47.528Z,8.68
2022-11-13T02:43:15.575Z,8.25
2022-11-13T02:45:42.296Z,7.97
2022-11-13T02:48:08.985Z,8.63
2022-11-13T02:50:37.047Z,8.00
2022-11-13T02:53:04.870Z,9.02
2022-11-13T02:55:31.569Z,8.23
2022-11-13T02:57:58.256Z,8.17
2022-11-13T03:00:26.848Z,8.93
2022-11-13T03:02:53.666Z,8.70
2022-11-13T03:05:20.292Z,7.95
2022-11-13T03:07:46.922Z,8.95
2022-11-13T03:10:13.631Z,7.87
2022-11-13T03:12:40.699Z,7.30
2022-11-13T03:15:09.242Z,8.20
2022-11-13T03:17:37.508Z,8.38
2022-11-13T03:20:05.348Z,7.40
2022-11-13T03:22:32.122Z,7.70
2022-11-13T03:24:58.844Z,7.68
2022-11-13T03:27:25.496Z,7.47
2022-11-13T03:29:52.242Z,8.25
2022-11-13T03:32:18.989Z,8.07
2022-11-13T03:34:46.996Z,7.77
2022-11-13T03:37:13.595Z,8.00
2022-11-13T03:39:40.296Z,7.38
2022-11-13T03:42:07.046Z,7.38
2022-11-13T03:44:33.699Z,7.72
2022-11-13T03:47:00.350Z,7.03
2022-11-13T03:49:26.937Z,8.25
2022-11-13T03:51:54.966Z,7.40
2022-11-13T03:54:21.604Z,6.30
2022-11-13T03:56:48.251Z,6.97
2022-11-13T03:59:14.889Z,7.13
2022-11-13T04:01:41.595Z,6.88
2022-11-13T04:04:08.502Z,7.93
2022-11-13T04:06:35.270Z,6.68
2022-11-13T04:09:03.528Z,7.18
2022-11-13T04:11:30.322Z,6.10
2022-11-13T04:13:57.259Z,5.70
2022-11-13T04:16:23.920Z,5.30
2022-11-13T04:18:50.624Z,5.20
2022-11-13T04:21:17.234Z,4.90
2022-11-13T04:23:43.951Z,5.80
2022-11-13T04:26:11.978Z,5.20
2022-11-13T04:28:38.637Z,5.00
2022-11-13T04:31:06.257Z,5.15
2022-11-13T04:33:32.935Z,5.05
2022-11-13T04:35:59.637Z,4.80
2022-11-13T04:38:26.610Z,5.50
2022-11-13T04:40:53.500Z,4.75
2022-11-13T04:43:21.531Z,5.20
2022-11-13T04:45:48.224Z,5.10
2022-11-13T04:48:14.937Z,5.20
2022-11-13T04:50:41.738Z,5.10
2022-11-13T04:53:08.386Z,4.35
2022-11-13T04:55:35.029Z,4.90
2022-11-13T04:58:01.724Z,5.07
2022-11-13T05:00:29.780Z,4.43
2022-11-13T05:02:56.703Z,5.28
2022-11-13T05:05:23.372Z,5.68
2022-11-13T05:07:50.039Z,5.50
2022-11-13T05:10:16.854Z,5.15
2022-11-13T05:12:43.515Z,5.20
2022-11-13T05:15:10.450Z,5.30
2022-11-13T05:17:38.471Z,5.28
2022-11-13T05:20:06.091Z,5.60
2022-11-13T05:22:32.815Z,5.38
2022-11-13T05:24:59.459Z,5.40
2022-11-13T05:27:26.126Z,5.15
2022-11-13T05:29:52.789Z,5.50
2022-11-13T05:32:19.457Z,5.65
2022-11-13T05:34:47.474Z,5.40
2022-11-13T05:37:14.473Z,4.97
2022-11-13T05:39:41.110Z,4.85
2022-11-13T05:42:07.797Z,4.93
2022-11-13T05:44:34.497Z,5.05
2022-11-13T05:47:01.186Z,5.45
2022-11-13T05:49:27.831Z,5.47
2022-11-13T05:51:55.860Z,5.47
2022-11-13T05:54:22.572Z,5.80
2022-11-13T05:56:49.268Z,5.20
2022-11-13T05:59:16.001Z,5.15
2022-11-13T06:01:42.704Z,5.20
2022-11-13T06:04:09.937Z,5.22
2022-11-13T06:06:36.729Z,4.80
2022-11-13T06:09:06.519Z,4.82
2022-11-13T06:11:33.403Z,4.50
2022-11-13T06:14:00.547Z,5.00
2022-11-13T06:16:28.854Z,4.18
2022-11-13T06:18:56.858Z,5.00
2022-11-13T06:21:24.844Z,5.13
2022-11-13T06:23:51.506Z,5.15
2022-11-13T06:26:21.657Z,4.77
2022-11-13T06:28:48.625Z,5.22
2022-11-13T06:31:18.020Z,6.28
2022-11-13T06:33:44.930Z,5.13
2022-11-13T06:36:13.900Z,5.07
2022-11-13T06:38:41.503Z,4.70
2022-11-13T06:41:09.594Z,4.75
2022-11-13T06:43:37.764Z,5.45
2022-11-13T06:46:05.799Z,5.10
2022-11-13T06:48:32.925Z,4.93
2022-11-13T06:51:01.515Z,5.40
2022-11-13T06:53:28.229Z,5.43
2022-11-13T06:55:54.885Z,5.40
2022-11-13T06:58:21.628Z,5.68
2022-11-13T07:00:50.072Z,5.85
2022-11-13T07:03:18.490Z,5.30
2022-11-13T07:05:45.460Z,5.93
2022-11-13T07:08:12.230Z,5.47
2022-11-13T07:10:39.178Z,5.00
2022-11-13T07:13:06.037Z,5.47
2022-11-13T07:15:34.033Z,5.57
2022-11-13T07:18:02.316Z,5.28
2022-11-13T07:20:28.991Z,5.53
2022-11-13T07:22:55.911Z,5.75
2022-11-13T07:25:22.655Z,5.70
2022-11-13T07:27:49.316Z,6.03
2022-11-13T07:30:16.292Z,5.60
2022-11-13T07:32:43.011Z,6.38
2022-11-13T07:35:11.561Z,6.45
2022-11-13T07:37:38.456Z,5.93
2022-11-13T07:40:06.892Z,5.63
2022-11-13T07:42:33.511Z,5.85
2022-11-13T07:45:00.173Z,6.53
2022-11-13T07:47:27.017Z,6.22
2022-11-13T07:49:55.353Z,6.93
2022-11-13T07:52:27.764Z,5.73
2022-11-13T07:54:54.382Z,5.97
2022-11-13T07:57:21.069Z,6.93
2022-11-13T07:59:47.677Z,6.30
2022-11-13T08:02:16.026Z,6.07
2022-11-13T08:04:42.735Z,5.97
2022-11-13T08:07:11.110Z,6.15
2022-11-13T08:09:39.313Z,5.63
2022-11-13T08:12:06.377Z,6.28
2022-11-13T08:14:33.069Z,6.28
2022-11-13T08:16:59.725Z,5.50
2022-11-13T08:19:26.408Z,6.72
2022-11-13T08:21:53.073Z,7.47
2022-11-13T08:24:19.743Z,6.15
2022-11-13T08:26:47.743Z,6.15
2022-11-13T08:29:14.386Z,6.50
2022-11-13T08:31:41.054Z,5.85
2022-11-13T08:34:07.772Z,5.85
2022-11-13T08:36:34.473Z,5.63
2022-11-13T08:39:01.145Z,5.57
2022-11-13T08:41:27.795Z,5.33
2022-11-13T08:43:55.803Z,5.57
2022-11-13T08:46:22.561Z,6.13
2022-11-13T08:48:49.200Z,5.22
2022-11-13T08:51:15.915Z,5.05
2022-11-13T08:53:42.660Z,5.07
2022-11-13T08:56:09.293Z,4.95
2022-11-13T08:58:36.109Z,5.03
2022-11-13T09:01:04.419Z,4.97
2022-11-13T09:03:31.141Z,5.00
2022-11-13T09:05:57.808Z,5.30
2022-11-13T09:08:24.487Z,5.13
2022-11-13T09:10:51.174Z,4.97
2022-11-13T09:13:17.792Z,4.75
2022-11-13T09:15:44.482Z,5.05
2022-11-13T09:18:12.647Z,5.00
2022-11-13T09:20:39.291Z,5.10
2022-11-13T09:23:07.486Z,5.30
2022-11-13T09:25:37.767Z,4.57
2022-11-13T09:28:05.993Z,5.25
2022-11-13T09:30:32.826Z,4.40
2022-11-13T09:33:00.494Z,5.07
2022-11-13T09:35:30.040Z,4.55
2022-11-13T09:37:56.795Z,4.90
2022-11-13T09:40:30.571Z,4.55
2022-11-13T09:42:57.638Z,4.53
2022-11-13T09:45:24.513Z,4.72
2022-11-13T09:47:53.304Z,5.05
2022-11-13T09:50:23.615Z,4.72
2022-11-13T09:52:51.764Z,4.60
2022-11-13T09:55:25.564Z,4.47
2022-11-13T09:57:59.716Z,5.30
2022-11-13T10:00:29.007Z,5.40
2022-11-13T10:03:08.126Z,4.90
2022-11-13T10:05:43.139Z,4.38
2022-11-13T10:08:16.292Z,5.03
2022-11-13T10:10:53.849Z,4.53
2022-11-13T10:13:27.335Z,5.13
2022-11-13T10:16:02.369Z,5.43
2022-11-13T10:18:33.799Z,5.30
2022-11-13T10:21:09.858Z,5.60
2022-11-13T10:23:38.672Z,5.20
2022-11-13T10:26:14.957Z,5.38
2022-11-13T10:28:51.061Z,4.82
2022-11-13T10:31:18.233Z,5.50
2022-11-13T10:33:44.873Z,4.63
2022-11-13T10:36:21.200Z,4.97
2022-11-13T10:38:54.575Z,5.10
2022-11-13T10:41:21.964Z,4.80
2022-11-13T10:43:55.325Z,5.10
2022-11-13T10:46:24.243Z,4.97
2022-11-13T10:48:51.227Z,5.35
2022-11-13T10:51:24.268Z,5.25
2022-11-13T10:53:53.554Z,4.90
2022-11-13T10:56:27.994Z,5.63
2022-11-13T10:59:10.157Z,4.70
2022-11-13T11:01:38.253Z,5.10
2022-11-13T11:04:05.621Z,5.00
2022-11-13T11:07:04.431Z,5.18
2022-11-13T11:09:25.077Z,5.20
2022-11-13T11:12:01.660Z,5.03
2022-11-13T11:14:33.057Z,4.85
2022-11-13T11:17:01.779Z,5.28
2022-11-13T11:19:30.764Z,4.80
2022-11-13T11:22:23.186Z,5.10
2022-11-13T11:24:57.178Z,5.10
2022-11-13T11:27:30.582Z,4.88
2022-11-13T11:30:03.089Z,4.80
2022-11-13T11:32:33.656Z,4.40
2022-11-13T11:35:08.302Z,4.07
2022-11-13T11:37:39.182Z,4.53
2022-11-13T11:40:16.088Z,4.25
2022-11-13T11:42:48.021Z,4.10
2022-11-13T11:45:20.343Z,3.92
2022-11-13T11:47:47.246Z,3.75
2022-11-13T11:50:15.734Z,3.80
2022-11-13T11:52:56.630Z,4.28
2022-11-13T11:55:57.208Z,3.78
2022-11-13T11:58:40.773Z,3.63
2022-11-13T12:01:17.496Z,4.15
2022-11-13T12:04:06.556Z,4.17
2022-11-13T12:06:45.382Z,3.80
2022-11-13T12:09:20.643Z,3.92
2022-11-13T12:11:56.400Z,4.13
2022-11-13T12:14:32.004Z,3.75
2022-11-13T12:17:17.087Z,3.40
2022-11-13T12:19:54.129Z,3.50
2022-11-13T12:22:31.060Z,4.30
2022-11-13T12:25:11.074Z,3.42
2022-11-13T12:27:43.553Z,3.67
2022-11-13T12:30:16.029Z,3.23
2022-11-13T12:32:55.019Z,3.10
2022-11-13T12:35:23.703Z,2.80
2022-11-13T12:37:56.207Z,2.60
2022-11-13T12:40:28.704Z,2.55
2022-11-13T12:43:07.361Z,2.70
2022-11-13T12:45:49.517Z,2.85
2022-11-13T12:48:28.582Z,3.25
2022-11-13T12:50:59.916Z,4.20
2022-11-13T12:53:28.522Z,3.17
2022-11-13T12:55:57.500Z,2.90
2022-11-13T12:58:27.996Z,2.30
2022-11-13T13:01:00.548Z,2.63
2022-11-13T13:03:43.859Z,2.42
2022-11-13T13:06:24.973Z,2.30
2022-11-13T13:09:02.799Z,2.00
2022-11-13T13:11:38.776Z,1.80
2022-11-13T13:14:32.454Z,2.00
2022-11-13T13:17:06.759Z,1.98
2022-11-13T13:19:34.192Z,2.13
2022-11-13T13:22:00.912Z,2.40
2022-11-13T13:24:31.937Z,2.25
2022-11-13T13:26:59.867Z,2.05
2022-11-13T13:29:29.394Z,2.03
2022-11-13T13:32:10.026Z,2.40
2022-11-13T13:34:49.411Z,1.83
2022-11-13T13:37:29.075Z,2.22
2022-11-13T13:40:08.684Z,1.85
2022-11-13T13:42:53.499Z,1.98
2022-11-13T13:45:31.721Z,1.85
2022-11-13T13:47:59.029Z,1.90
2022-11-13T13:50:27.654Z,1.92
2022-11-13T13:52:56.407Z,2.10
2022-11-13T13:55:29.983Z,2.13
2022-11-13T13:58:00.314Z,2.00
2022-11-13T14:00:32.030Z,1.93
2022-11-13T14:02:58.773Z,2.15
2022-11-13T14:05:29.912Z,2.30
2022-11-13T14:07:57.117Z,2.28
2022-11-13T14:10:25.814Z,2.13
2022-11-13T14:12:52.716Z,2.40
2022-11-13T14:15:25.955Z,2.10
2022-11-13T14:18:05.447Z,2.08
2022-11-13T14:20:40.776Z,1.85
2022-11-13T14:23:12.550Z,1.80
2022-11-13T14:25:39.665Z,2.30
2022-11-13T14:28:14.035Z,1.85
2022-11-13T14:30:41.017Z,2.10
2022-11-13T14:33:15.050Z,2.25
2022-11-13T14:35:50.704Z,1.80
2022-11-13T14:38:20.371Z,2.10
2022-11-13T14:40:48.723Z,1.50
2022-11-13T14:43:19.829Z,1.85
2022-11-13T14:45:53.964Z,1.48
2022-11-13T14:48:24.210Z,2.03
2022-11-13T14:50:54.438Z,1.80
2022-11-13T14:53:30.464Z,1.88
2022-11-13T14:55:59.654Z,2.30
2022-11-13T14:58:27.966Z,2.00
2022-11-13T15:00:55.099Z,2.25
2022-11-13T15:03:24.164Z,1.90
2022-11-13T15:05:53.907Z,2.10
2022-11-13T15:08:20.911Z,1.95
2022-11-13T15:10:47.842Z,2.00
2022-11-13T15:13:15.790Z,2.30
2022-11-13T15:15:43.230Z,2.07
2022-11-13T15:18:15.803Z,2.10
2022-11-13T15:20:45.067Z,1.92
2022-11-13T15:23:14.318Z,1.75
2022-11-13T15:25:41.492Z,1.92
2022-11-13T15:28:08.457Z,1.80
2022-11-13T15:30:35.251Z,1.95
2022-11-13T15:33:02.425Z,1.85
2022-11-13T15:35:29.096Z,2.15
2022-11-13T15:37:57.182Z,2.08
2022-11-13T15:40:23.872Z,2.00
2022-11-13T15:42:50.612Z,2.30
2022-11-13T15:45:17.565Z,2.38
2022-11-13T15:47:44.379Z,2.38
2022-11-13T15:50:14.447Z,1.90
2022-11-13T15:52:45.513Z,1.90
2022-11-13T15:55:26.059Z,1.80
2022-11-13T15:57:53.507Z,1.95
2022-11-13T16:00:21.637Z,1.88
2022-11-13T16:02:48.282Z,2.05
2022-11-13T16:05:14.974Z,2.33
2022-11-13T16:07:42.504Z,2.30
2022-11-13T16:10:10.114Z,2.40
2022-11-13T16:12:38.171Z,2.42
2022-11-13T16:15:05.800Z,2.95
2022-11-13T16:17:38.125Z,3.50
2022-11-13T16:20:05.569Z,3.58
2022-11-13T16:22:32.241Z,4.85
2022-11-13T16:24:58.881Z,3.67
2022-11-13T16:27:28.781Z,2.53
2022-11-13T16:29:58.347Z,3.10
2022-11-13T16:32:26.811Z,2.60
2022-11-13T16:34:53.485Z,2.65
2022-11-13T16:37:22.146Z,2.58
2022-11-13T16:39:49.695Z,2.95
2022-11-13T16:42:18.231Z,3.17
2022-11-13T16:44:44.986Z,4.00
2022-11-13T16:47:20.968Z,6.47
2022-11-13T16:49:47.712Z,7.65
2022-11-13T16:52:14.373Z,7.43
2022-11-13T16:54:41.050Z,8.17
2022-11-13T16:57:09.811Z,6.43
2022-11-13T16:59:36.481Z,6.90
2022-11-13T17:02:03.218Z,5.97
2022-11-13T17:04:31.295Z,4.40
2022-11-13T17:06:58.140Z,4.60
2022-11-13T17:09:24.833Z,5.00
2022-11-13T17:11:51.508Z,5.53
2022-11-13T17:14:18.151Z,4.80
2022-11-13T17:16:44.878Z,4.47
2022-11-13T17:19:12.694Z,4.20
2022-11-13T17:21:44.227Z,4.22
2022-11-13T17:24:11.249Z,4.05
2022-11-13T17:26:37.942Z,3.55
2022-11-13T17:29:04.589Z,2.97
2022-11-13T17:31:31.308Z,2.77
2022-11-13T17:33:58.072Z,3.60
2022-11-13T17:36:24.760Z,3.40
2022-11-13T17:38:52.839Z,3.65
2022-11-13T17:41:19.602Z,3.13
2022-11-13T17:43:46.539Z,4.83
2022-11-13T17:46:14.936Z,3.78
2022-11-13T17:48:41.960Z,7.13
2022-11-13T17:51:12.104Z,9.63
2022-11-13T17:53:38.968Z,22.10
2022-11-13T17:56:09.716Z,11.67
2022-11-13T17:58:38.209Z,11.85
2022-11-13T18:01:06.672Z,5.35
2022-11-13T18:03:33.846Z,7.30
2022-11-13T18:06:04.156Z,5.03
2022-11-13T18:08:30.984Z,5.07
2022-11-13T18:10:57.668Z,5.97
2022-11-13T18:13:26.051Z,5.80
2022-11-13T18:15:52.990Z,5.03
2022-11-13T18:18:19.668Z,4.38
2022-11-13T18:20:46.366Z,4.87
2022-11-13T18:23:13.060Z,4.90
2022-11-13T18:25:40.027Z,5.10
2022-11-13T18:28:06.752Z,4.82
2022-11-13T18:30:37.934Z,4.55
2022-11-13T18:33:04.927Z,4.33
2022-11-13T18:35:31.951Z,4.32
2022-11-13T18:37:58.665Z,4.70
2022-11-13T18:40:25.320Z,4.60
2022-11-13T18:42:52.051Z,5.35
2022-11-13T18:45:18.768Z,5.40
2022-11-13T18:47:46.848Z,5.22
2022-11-13T18:50:13.473Z,5.45
2022-11-13T18:52:40.156Z,6.85
2022-11-13T18:55:07.770Z,5.60
2022-11-13T18:57:34.446Z,5.90
2022-11-13T19:00:01.069Z,7.32
2022-11-13T19:02:27.735Z,7.43
2022-11-13T19:04:55.851Z,6.93
2022-11-13T19:07:22.582Z,6.55
2022-11-13T19:09:49.352Z,6.03
2022-11-13T19:12:16.308Z,6.28
2022-11-13T19:14:42.975Z,5.97
2022-11-13T19:17:09.672Z,6.38
2022-11-13T19:19:36.338Z,6.90
2022-11-13T19:22:04.316Z,6.03
2022-11-13T19:24:30.996Z,5.30
2022-11-13T19:26:57.670Z,5.35
2022-11-13T19:29:24.397Z,5.57
2022-11-13T19:31:51.077Z,5.50
2022-11-13T19:34:17.808Z,5.33
2022-11-13T19:36:44.472Z,5.13
2022-11-13T19:39:12.517Z,5.18
2022-11-13T19:41:39.300Z,5.47
2022-11-13T19:44:05.913Z,5.50
2022-11-13T19:46:32.686Z,6.23
2022-11-13T19:48:59.474Z,5.60
2022-11-13T19:51:26.467Z,5.68
2022-11-13T19:53:54.481Z,6.22
2022-11-13T19:56:24.034Z,6.60
2022-11-13T19:58:51.508Z,6.77
2022-11-13T20:01:20.190Z,8.90
2022-11-13T20:03:47.243Z,9.93
2022-11-13T20:06:15.743Z,10.75
2022-11-13T20:08:42.657Z,8.82
2022-11-13T20:11:11.496Z,8.17
2022-11-13T20:13:40.599Z,7.97
2022-11-13T20:16:09.944Z,8.02
2022-11-13T20:18:36.730Z,7.43
2022-11-13T20:21:04.134Z,7.53
2022-11-13T20:23:30.846Z,7.50
2022-11-13T20:25:59.390Z,7.20
2022-11-13T20:28:27.624Z,7.35
2022-11-13T20:31:04.836Z,6.80
2022-11-13T20:33:32.264Z,6.32
2022-11-13T20:35:59.128Z,6.23
2022-11-13T20:38:26.014Z,5.88
2022-11-13T20:40:52.817Z,6.53
2022-11-13T20:43:19.530Z,6.72
2022-11-13T20:45:46.198Z,7.28
2022-11-13T20:48:14.281Z,6.57
2022-11-13T20:50:40.996Z,6.43
2022-11-13T20:53:07.906Z,7.25
2022-11-13T20:55:34.622Z,7.60
2022-11-13T20:58:01.316Z,7.35
2022-11-13T21:00:28.034Z,6.87
2022-11-13T21:02:54.689Z,6.65
2022-11-13T21:05:22.844Z,6.88
2022-11-13T21:07:49.471Z,6.68
2022-11-13T21:10:16.375Z,7.15
2022-11-13T21:12:43.045Z,7.60
2022-11-13T21:15:10.126Z,6.82
2022-11-13T21:17:36.852Z,8.07
2022-11-13T21:20:04.256Z,7.35
2022-11-13T21:22:32.518Z,7.63
2022-11-13T21:24:59.175Z,7.63
2022-11-13T21:27:25.848Z,7.13
2022-11-13T21:29:52.543Z,7.95
2022-11-13T21:32:19.309Z,8.82
2022-11-13T21:34:46.051Z,9.75
2022-11-13T21:37:12.761Z,9.60
2022-11-13T21:39:40.849Z,8.75
2022-11-13T21:42:07.509Z,10.55
2022-11-13T21:44:34.144Z,10.55
2022-11-13T21:47:00.819Z,10.63
2022-11-13T21:49:27.472Z,10.63
2022-11-13T21:51:54.173Z,10.52
2022-11-13T21:54:20.800Z,10.70
2022-11-13T21:56:48.859Z,10.88
2022-11-13T21:59:15.480Z,10.23
2022-11-13T22:01:42.239Z,10.47
2022-11-13T22:04:09.110Z,11.38
2022-11-13T22:06:36.273Z,11.68
2022-11-13T22:09:05.029Z,11.48
2022-11-13T22:11:34.083Z,10.80
2022-11-13T22:14:02.773Z,11.23
2022-11-13T22:16:32.394Z,11.30
2022-11-13T22:19:06.152Z,9.73
2022-11-13T22:21:33.108Z,10.02
2022-11-13T22:24:00.416Z,10.73
2022-11-13T22:26:28.708Z,10.47
2022-11-13T22:28:56.197Z,10.50
2022-11-13T22:31:26.494Z,11.48
2022-11-13T22:33:55.303Z,10.55
2022-11-13T22:36:23.944Z,10.82
2022-11-13T22:38:50.830Z,10.90
2022-11-13T22:41:22.876Z,11.15
2022-11-13T22:43:51.979Z,10.38
2022-11-13T22:46:21.535Z,10.52
2022-11-13T22:48:50.996Z,9.60
2022-11-13T22:51:19.209Z,9.67
2022-11-13T22:53:49.221Z,9.50
2022-11-13T22:56:21.364Z,10.32
2022-11-13T22:58:48.360Z,10.10
2022-11-13T23:01:16.919Z,9.98
2022-11-13T23:03:45.234Z,9.13
2022-11-13T23:06:14.468Z,8.93
2022-11-13T23:08:41.513Z,9.88
2022-11-13T23:11:11.691Z,9.75
2022-11-13T23:13:40.575Z,9.57
2022-11-13T23:16:07.664Z,9.63
2022-11-13T23:18:34.368Z,9.70
2022-11-13T23:21:00.995Z,10.98
2022-11-13T23:23:29.051Z,9.50
2022-11-13T23:25:55.820Z,10.63
2022-11-13T23:28:22.499Z,9.30
2022-11-13T23:30:49.283Z,9.25
2022-11-13T23:33:15.940Z,9.45
2022-11-13T23:35:42.600Z,10.77
2022-11-13T23:38:09.510Z,9.88
2022-11-13T23:40:37.530Z,9.57
2022-11-13T23:43:04.521Z,10.02
2022-11-13T23:45:31.155Z,9.27
2022-11-13T23:47:57.881Z,9.60
2022-11-13T23:50:24.653Z,9.05
2022-11-13T23:52:51.478Z,9.10
2022-11-13T23:55:18.507Z,10.18
2022-11-13T23:57:46.749Z,10.07
